This is the latest recevied weather packets stored in our database for station/object DG3RAP-11. If no packets are shown the sender has not sent any weather packets the latest 10 day(s).
| Time | Temp. | Humidity | Pressure | Rain* | Wind** | Luminosity | Snow |
|---|---|---|---|---|---|---|---|
| 1777680543 | 10.56° C | 62% | 1024.4 hPa | 0 mm | - | - | - |
| 1777680003 | 11.11° C | 61% | 1024.4 hPa | 0 mm | - | - | - |
| 1777679644 | 12.22° C | 57% | 1024.6 hPa | 0 mm | - | - | - |
| 1777679103 | 12.22° C | 57% | 1024.6 hPa | 0 mm | - | - | - |
| 1777678563 | 12.22° C | 56% | 1024.5 hPa | 0 mm | - | - | - |
| 1777678023 | 12.22° C | 56% | 1024.6 hPa | 0 mm | - | - | - |
| 1777677483 | 12.22° C | 56% | 1024.4 hPa | 0 mm | - | - | - |
| 1777676944 | 12.22° C | 56% | 1024.7 hPa | 0 mm | - | - | - |
| 1777676403 | 12.22° C | 58% | 1024.6 hPa | 0 mm | - | - | - |
| 1777676043 | 12.22° C | 57% | 1024.6 hPa | 0 mm | - | - | - |
| 1777675503 | 12.22° C | 56% | 1024.6 hPa | 0 mm | - | - | - |
| 1777674964 | 12.78° C | 55% | 1024.8 hPa | 0 mm | - | - | - |
| 1777674424 | 12.78° C | 55% | 1024.7 hPa | 0 mm | - | - | - |
| 1777673884 | 12.78° C | 55% | 1024.7 hPa | 0 mm | - | - | - |
| 1777673343 | 12.78° C | 57% | 1024.8 hPa | 0 mm | - | - | - |
| 1777672803 | 12.22° C | 59% | 1024.8 hPa | 0 mm | - | - | - |
| 1777672443 | 12.22° C | 59% | 1024.8 hPa | 0 mm | - | - | - |
| 1777671903 | 12.22° C | 58% | 1024.7 hPa | 0 mm | - | - | - |
| 1777671363 | 12.22° C | 57% | 1024.6 hPa | 0 mm | - | - | - |
| 1777670823 | 11.67° C | 58% | 1024.4 hPa | 0 mm | - | - | - |
| 1777670284 | 12.22° C | 59% | 1024.7 hPa | 0 mm | - | - | - |
| 1777669743 | 13.89° C | 51% | 1024.6 hPa | 0 mm | - | - | - |
| 1777669203 | 14.44° C | 49% | 1024.8 hPa | 0 mm | - | - | - |
| 1777668843 | 15° C | 47% | 1024.6 hPa | 0 mm | - | - | - |
| 1777668304 | 15.56° C | 46% | 1024.5 hPa | 0 mm | - | - | - |
* Rain latest hour (hover to see other rain measurements)
** Current wind speed in m/s (hover to see current wind gust speed)